createdAt,value
2017-01-06T20:26:40.318Z,1017.3
2017-01-06T20:27:01.868Z,1017.3
2017-01-06T20:27:23.253Z,1017.3
2017-01-06T20:27:44.701Z,1017.3
2017-01-06T20:28:06.080Z,1017.2
2017-01-06T20:28:27.756Z,1017.3
2017-01-06T20:28:49.431Z,1017.2
2017-01-06T20:29:10.736Z,1017.3
2017-01-06T20:29:32.065Z,1017.3
2017-01-06T20:29:53.380Z,1017.2
2017-01-06T20:30:14.741Z,1017.3
2017-01-06T20:30:36.044Z,1017.3
2017-01-06T20:30:57.367Z,1017.2
2017-01-06T20:31:18.692Z,1017.3
2017-01-06T20:31:40.007Z,1017.3
2017-01-06T20:32:01.401Z,1017.3
2017-01-06T20:32:22.702Z,1017.2
2017-01-06T20:32:44.026Z,1017.2
2017-01-06T20:33:05.348Z,1017.2
2017-01-06T20:33:26.643Z,1017.3
2017-01-06T20:33:47.954Z,1017.3
2017-01-06T20:34:09.270Z,1017.3
2017-01-06T20:34:30.610Z,1017.3
2017-01-06T20:34:51.933Z,1017.3
2017-01-06T20:35:13.250Z,1017.3
2017-01-06T20:35:34.574Z,1017.3
2017-01-06T20:35:55.879Z,1017.3
2017-01-06T20:36:17.195Z,1017.3
2017-01-06T20:36:38.517Z,1017.3
2017-01-06T20:36:59.829Z,1017.3
2017-01-06T20:37:21.147Z,1017.3
2017-01-06T20:37:42.454Z,1017.3
2017-01-06T20:38:03.761Z,1017.3
2017-01-06T20:38:25.070Z,1017.3
2017-01-06T20:38:46.432Z,1017.4
2017-01-06T20:39:08.271Z,1017.4
2017-01-06T20:39:29.675Z,1017.3
2017-01-06T20:39:51.008Z,1017.4
2017-01-06T20:40:12.344Z,1017.4
2017-01-06T20:40:33.641Z,1017.3
2017-01-06T20:40:54.957Z,1017.3
2017-01-06T20:41:16.273Z,1017.3
2017-01-06T20:41:37.619Z,1017.4
2017-01-06T20:41:58.928Z,1017.4
2017-01-06T20:42:20.261Z,1017.4
2017-01-06T20:42:41.684Z,1017.3
2017-01-06T20:43:03.477Z,1017.3
2017-01-06T20:43:24.802Z,1017.4
2017-01-06T20:43:46.135Z,1017.4
2017-01-06T20:44:07.445Z,1017.3
2017-01-06T20:44:28.761Z,1017.3
2017-01-06T20:44:50.113Z,1017.4
2017-01-06T20:45:11.421Z,1017.4
2017-01-06T20:45:32.747Z,1017.4
2017-01-06T20:45:54.137Z,1017.4
2017-01-06T20:46:15.559Z,1017.4
2017-01-06T20:46:36.870Z,1017.4
2017-01-06T20:46:58.298Z,1017.4
2017-01-06T20:47:19.636Z,1017.3
2017-01-06T20:47:40.944Z,1017.4
2017-01-06T20:48:02.260Z,1017.3
2017-01-06T20:48:23.573Z,1017.3
2017-01-06T20:48:44.886Z,1017.3
2017-01-06T20:49:06.203Z,1017.3
2017-01-06T20:49:27.560Z,1017.3
2017-01-06T20:49:48.872Z,1017.3
2017-01-06T20:50:10.237Z,1017.3
2017-01-06T20:50:31.552Z,1017.4
2017-01-06T20:50:52.877Z,1017.3
2017-01-06T20:51:14.264Z,1017.3
2017-01-06T20:51:35.609Z,1017.4
2017-01-06T20:51:56.929Z,1017.3
2017-01-06T20:52:18.269Z,1017.3
2017-01-06T20:52:39.577Z,1017.3
2017-01-06T20:53:00.927Z,1017.3
2017-01-06T20:53:22.246Z,1017.3
2017-01-06T20:53:43.552Z,1017.3
2017-01-06T20:54:04.870Z,1017.3
2017-01-06T20:54:26.202Z,1017.3
2017-01-06T20:54:47.625Z,1017.3
2017-01-06T20:55:08.968Z,1017.3
2017-01-06T20:55:30.974Z,1017.3
2017-01-06T20:55:53.265Z,1017.3
2017-01-06T20:56:15.317Z,1017.3
2017-01-06T20:56:37.352Z,1017.3
2017-01-06T20:56:59.477Z,1017.3
2017-01-06T20:57:21.502Z,1017.3
2017-01-06T20:57:43.561Z,1017.3
2017-01-06T20:58:05.582Z,1017.3
2017-01-06T20:58:27.710Z,1017.3
2017-01-06T20:58:49.660Z,1017.3
2017-01-06T20:59:11.596Z,1017.3
2017-01-06T20:59:33.714Z,1017.3
2017-01-06T20:59:55.680Z,1017.3
2017-01-06T21:00:17.762Z,1017.4
2017-01-06T21:00:39.635Z,1017.3
2017-01-06T21:01:01.571Z,1017.4
2017-01-06T21:01:23.643Z,1017.3
2017-01-06T21:01:45.570Z,1017.4
2017-01-06T21:02:07.715Z,1017.4
2017-01-06T21:02:29.714Z,1017.4
2017-01-06T21:02:51.683Z,1017.4
2017-01-06T21:03:13.718Z,1017.4
2017-01-06T21:03:36.709Z,1017.4
2017-01-06T21:03:58.614Z,1017.4
2017-01-06T21:04:20.395Z,1017.4
2017-01-06T21:04:42.375Z,1017.3
2017-01-06T21:05:04.337Z,1017.4
2017-01-06T21:05:26.294Z,1017.3
2017-01-06T21:05:48.240Z,1017.4
2017-01-06T21:06:10.314Z,1017.3
2017-01-06T21:06:32.286Z,1017.3
2017-01-06T21:06:54.169Z,1017.3
2017-01-06T21:07:16.295Z,1017.3
2017-01-06T21:07:38.277Z,1017.4
2017-01-06T21:08:00.289Z,1017.4
2017-01-06T21:08:22.353Z,1017.4
2017-01-06T21:08:44.223Z,1017.4
2017-01-06T21:09:06.301Z,1017.4
2017-01-06T21:09:28.320Z,1017.4
2017-01-06T21:09:50.386Z,1017.4
2017-01-06T21:10:12.388Z,1017.4
2017-01-06T21:10:34.448Z,1017.4
2017-01-06T21:10:56.440Z,1017.4
2017-01-06T21:11:18.527Z,1017.4
2017-01-06T21:11:40.614Z,1017.4
2017-01-06T21:12:02.590Z,1017.4
2017-01-06T21:12:24.699Z,1017.4
2017-01-06T21:12:46.867Z,1017.4
2017-01-06T21:13:08.857Z,1017.4
2017-01-06T21:13:30.868Z,1017.4
2017-01-06T21:13:52.827Z,1017.5
2017-01-06T21:14:14.671Z,1017.4
2017-01-06T21:14:36.659Z,1017.5
2017-01-06T21:14:58.718Z,1017.5
2017-01-06T21:15:20.767Z,1017.4
2017-01-06T21:15:42.775Z,1017.4
2017-01-06T21:16:05.102Z,1017.4
2017-01-06T21:16:27.181Z,1017.4
2017-01-06T21:16:49.425Z,1017.4
2017-01-06T21:17:11.597Z,1017.4
2017-01-06T21:17:33.626Z,1017.4
2017-01-06T21:17:55.638Z,1017.4
2017-01-06T21:18:17.721Z,1017.4
2017-01-06T21:18:39.885Z,1017.4
2017-01-06T21:19:01.955Z,1017.4
2017-01-06T21:19:24.098Z,1017.5
2017-01-06T21:19:46.101Z,1017.4
2017-01-06T21:20:08.057Z,1017.4
2017-01-06T21:20:30.085Z,1017.4
2017-01-06T21:20:52.011Z,1017.4
2017-01-06T21:21:13.951Z,1017.4
2017-01-06T21:21:35.978Z,1017.4
2017-01-06T21:21:58.232Z,1017.4
2017-01-06T21:22:20.301Z,1017.4
2017-01-06T21:22:42.264Z,1017.4
2017-01-06T21:23:04.387Z,1017.4
2017-01-06T21:23:26.396Z,1017.4
2017-01-06T21:23:48.305Z,1017.4
2017-01-06T21:24:10.307Z,1017.4
2017-01-06T21:24:32.363Z,1017.4
2017-01-06T21:24:54.437Z,1017.3
2017-01-06T21:25:16.482Z,1017.4
2017-01-06T21:25:38.505Z,1017.4
2017-01-06T21:26:00.620Z,1017.4
2017-01-06T21:26:22.673Z,1017.4
2017-01-06T21:26:44.688Z,1017.4
2017-01-06T21:27:06.704Z,1017.4
2017-01-06T21:27:28.737Z,1017.4
2017-01-06T21:27:50.727Z,1017.4
2017-01-06T21:28:12.813Z,1017.4
2017-01-06T21:28:34.804Z,1017.5
2017-01-06T21:28:56.787Z,1017.4
2017-01-06T21:29:18.738Z,1017.5
2017-01-06T21:29:40.600Z,1017.4
2017-01-06T21:30:02.826Z,1017.5
2017-01-06T21:30:24.776Z,1017.4
2017-01-06T21:30:46.670Z,1017.5
2017-01-06T21:31:08.654Z,1017.5
2017-01-06T21:31:30.698Z,1017.4
2017-01-06T21:31:52.750Z,1017.5
2017-01-06T21:32:14.715Z,1017.4
2017-01-06T21:32:36.727Z,1017.4
2017-01-06T21:32:58.322Z,1017.4
2017-01-06T21:33:20.443Z,1017.4
2017-01-06T21:33:42.462Z,1017.5
2017-01-06T21:34:04.260Z,1017.4
2017-01-06T21:34:26.363Z,1017.4
2017-01-06T21:34:48.340Z,1017.5
2017-01-06T21:35:10.575Z,1017.5
2017-01-06T21:35:32.688Z,1017.4
2017-01-06T21:35:54.807Z,1017.4
2017-01-06T21:36:16.563Z,1017.5
2017-01-06T21:36:38.535Z,1017.5
2017-01-06T21:37:00.550Z,1017.4
2017-01-06T21:37:22.503Z,1017.4
2017-01-06T21:37:44.513Z,1017.5
2017-01-06T21:38:06.415Z,1017.5
2017-01-06T21:38:28.313Z,1017.5
2017-01-06T21:38:59.909Z,1017.5
2017-01-06T21:39:22.053Z,1017.5
2017-01-06T21:39:43.991Z,1017.5
2017-01-06T21:40:05.957Z,1017.5
2017-01-06T21:40:27.874Z,1017.5
2017-01-06T21:40:49.904Z,1017.5
2017-01-06T21:41:12.007Z,1017.4
2017-01-06T21:41:34.087Z,1017.5
2017-01-06T21:41:56.069Z,1017.5
2017-01-06T21:42:18.022Z,1017.5
2017-01-06T21:42:40.081Z,1017.4
2017-01-06T21:43:02.065Z,1017.5
2017-01-06T21:43:23.995Z,1017.5
2017-01-06T21:43:46.049Z,1017.4
2017-01-06T21:44:08.205Z,1017.4
2017-01-06T21:44:30.292Z,1017.4
2017-01-06T21:44:52.375Z,1017.4
2017-01-06T21:45:14.391Z,1017.4
2017-01-06T21:45:36.357Z,1017.4
2017-01-06T21:45:58.341Z,1017.4
2017-01-06T21:46:20.347Z,1017.4
2017-01-06T21:46:42.361Z,1017.4
2017-01-06T21:47:04.315Z,1017.4
2017-01-06T21:47:26.326Z,1017.3
2017-01-06T21:47:48.355Z,1017.4
2017-01-06T21:48:10.513Z,1017.4
2017-01-06T21:48:32.762Z,1017.4
2017-01-06T21:48:55.129Z,1017.4
2017-01-06T21:49:18.388Z,1017.4
2017-01-06T21:49:40.525Z,1017.4
2017-01-06T21:50:02.641Z,1017.4
2017-01-06T21:50:24.608Z,1017.4
2017-01-06T21:50:46.624Z,1017.4
2017-01-06T21:51:08.597Z,1017.4
2017-01-06T21:51:30.676Z,1017.4
2017-01-06T21:51:52.691Z,1017.4
2017-01-06T21:52:14.748Z,1017.4
2017-01-06T21:52:36.868Z,1017.4
2017-01-06T21:52:59.187Z,1017.4
2017-01-06T21:53:21.295Z,1017.4
2017-01-06T21:53:43.243Z,1017.4
2017-01-06T21:54:05.286Z,1017.4
2017-01-06T21:54:27.312Z,1017.4
2017-01-06T21:54:49.526Z,1017.4
2017-01-06T21:55:11.513Z,1017.4
2017-01-06T21:55:33.483Z,1017.4
2017-01-06T21:55:55.503Z,1017.4
2017-01-06T21:56:17.594Z,1017.3
2017-01-06T21:56:39.482Z,1017.3
2017-01-06T21:57:01.495Z,1017.3
2017-01-06T21:57:23.471Z,1017.3
2017-01-06T21:57:45.504Z,1017.3
2017-01-06T21:58:07.514Z,1017.3
2017-01-06T21:58:29.525Z,1017.3
2017-01-06T21:58:51.437Z,1017.3
2017-01-06T21:59:13.463Z,1017.3
2017-01-06T21:59:35.628Z,1017.3
2017-01-06T21:59:57.687Z,1017.3
2017-01-06T22:00:19.771Z,1017.3
2017-01-06T22:00:41.803Z,1017.3
2017-01-06T22:01:03.731Z,1017.3
2017-01-06T22:01:25.896Z,1017.3
2017-01-06T22:01:47.840Z,1017.3
2017-01-06T22:02:10.051Z,1017.3
2017-01-06T22:02:32.127Z,1017.3
2017-01-06T22:02:54.152Z,1017.3
2017-01-06T22:03:16.245Z,1017.3
2017-01-06T22:03:38.180Z,1017.2
2017-01-06T22:04:00.459Z,1017.3
2017-01-06T22:04:22.486Z,1017.2
2017-01-06T22:04:44.467Z,1017.3
2017-01-06T22:05:06.260Z,1017.3
2017-01-06T22:05:28.228Z,1017.2
2017-01-06T22:05:50.385Z,1017.2
2017-01-06T22:06:12.408Z,1017.3
2017-01-06T22:06:35.019Z,1017.2
2017-01-06T22:06:58.675Z,1017.3
2017-01-06T22:07:21.771Z,1017.3
2017-01-06T22:07:44.739Z,1017.2
2017-01-06T22:08:08.260Z,1017.2
2017-01-06T22:08:29.952Z,1017.2
2017-01-06T22:08:51.989Z,1017.2
2017-01-06T22:09:14.007Z,1017.2
2017-01-06T22:09:36.009Z,1017.2
2017-01-06T22:09:58.148Z,1017.2
2017-01-06T22:10:20.316Z,1017.3
2017-01-06T22:10:42.635Z,1017.2
2017-01-06T22:11:04.345Z,1017.3
2017-01-06T22:11:26.400Z,1017.2
2017-01-06T22:11:48.405Z,1017.3
2017-01-06T22:12:10.463Z,1017.3
2017-01-06T22:12:32.290Z,1017.2
2017-01-06T22:12:54.303Z,1017.3
2017-01-06T22:13:16.401Z,1017.2
2017-01-06T22:13:38.252Z,1017.3
2017-01-06T22:14:00.282Z,1017.3
2017-01-06T22:14:22.284Z,1017.3
2017-01-06T22:14:44.370Z,1017.3
2017-01-06T22:15:06.464Z,1017.3
2017-01-06T22:15:28.637Z,1017.2
2017-01-06T22:15:50.443Z,1017.2
2017-01-06T22:16:12.733Z,1017.2
2017-01-06T22:16:34.751Z,1017.2
2017-01-06T22:16:56.990Z,1017.2
2017-01-06T22:17:19.031Z,1017.2
2017-01-06T22:17:41.473Z,1017.2
2017-01-06T22:18:04.030Z,1017.2
2017-01-06T22:18:25.916Z,1017.2
2017-01-06T22:18:47.706Z,1017.2
2017-01-06T22:19:09.828Z,1017.2
2017-01-06T22:19:32.205Z,1017.2
2017-01-06T22:19:54.332Z,1017.2
2017-01-06T22:20:16.349Z,1017.2
2017-01-06T22:20:38.182Z,1017.2
2017-01-06T22:21:00.209Z,1017.2
2017-01-06T22:21:22.326Z,1017.2
2017-01-06T22:21:44.832Z,1017.2
2017-01-06T22:22:07.058Z,1017.2
2017-01-06T22:22:29.073Z,1017.2
2017-01-06T22:22:51.558Z,1017.2
2017-01-06T22:23:13.500Z,1017.2
2017-01-06T22:23:35.445Z,1017.2
2017-01-06T22:23:57.465Z,1017.2
2017-01-06T22:24:19.517Z,1017.2
2017-01-06T22:24:42.275Z,1017.2
2017-01-06T22:25:05.490Z,1017.2
2017-01-06T22:25:28.049Z,1017.2
2017-01-06T22:25:50.127Z,1017.2
2017-01-06T22:26:12.254Z,1017.2
2017-01-06T22:26:34.289Z,1017.1
2017-01-06T22:26:56.257Z,1017.2
2017-01-06T22:27:18.274Z,1017.2
2017-01-06T22:27:40.235Z,1017.2
2017-01-06T22:28:02.291Z,1017.2
2017-01-06T22:28:28.555Z,1017.2
2017-01-06T22:28:54.873Z,1017.2
2017-01-06T22:29:21.220Z,1017.2
2017-01-06T22:29:47.274Z,1017.2
2017-01-06T22:30:13.614Z,1017.2
2017-01-06T22:30:40.724Z,1017.2
2017-01-06T22:31:07.098Z,1017.1
2017-01-06T22:31:31.657Z,1017.1
2017-01-06T22:31:55.354Z,1017.1
2017-01-06T22:32:16.675Z,1017.2
2017-01-06T22:32:39.295Z,1017.2
2017-01-06T22:33:04.310Z,1017.1
2017-01-06T22:33:29.866Z,1017.2
2017-01-06T22:33:53.228Z,1017.1
2017-01-06T22:34:15.167Z,1017.1
2017-01-06T22:34:40.330Z,1017.1
2017-01-06T22:35:06.345Z,1017.1
2017-01-06T22:35:31.535Z,1017.1
2017-01-06T22:35:58.382Z,1017.1
2017-01-06T22:36:23.477Z,1017.1
2017-01-06T22:36:44.902Z,1017.1
2017-01-06T22:37:07.951Z,1017
2017-01-06T22:37:32.548Z,1017
2017-01-06T22:37:57.691Z,1017
2017-01-06T22:38:21.010Z,1017.1
2017-01-06T22:38:45.907Z,1017
2017-01-06T22:39:10.329Z,1017
2017-01-06T22:39:34.117Z,1017
2017-01-06T22:39:57.124Z,1017
2017-01-06T22:40:20.510Z,1017
2017-01-06T22:40:41.821Z,1017
2017-01-06T22:41:03.202Z,1017
2017-01-06T22:41:24.562Z,1016.9
2017-01-06T22:41:46.836Z,1017
2017-01-06T22:42:10.167Z,1017
2017-01-06T22:42:33.666Z,1017
2017-01-06T22:42:55.784Z,1016.9
2017-01-06T22:43:18.292Z,1017
2017-01-06T22:43:40.213Z,1016.9
2017-01-06T22:44:01.553Z,1017
2017-01-06T22:44:23.632Z,1016.9
2017-01-06T22:44:45.163Z,1016.9
2017-01-06T22:45:06.827Z,1016.9
2017-01-06T22:45:28.134Z,1016.9
2017-01-06T22:45:49.645Z,1016.9
2017-01-06T22:46:10.950Z,1016.9
2017-01-06T22:46:32.261Z,1016.9
2017-01-06T22:46:53.620Z,1017
2017-01-06T22:47:14.930Z,1017
2017-01-06T22:47:36.254Z,1017
2017-01-06T22:47:57.563Z,1017
2017-01-06T22:48:18.868Z,1017
2017-01-06T22:48:40.169Z,1016.9
2017-01-06T22:49:01.515Z,1016.9
2017-01-06T22:49:22.853Z,1016.9
2017-01-06T22:49:44.162Z,1016.9
2017-01-06T22:50:05.473Z,1016.9
2017-01-06T22:50:26.794Z,1016.9
2017-01-06T22:50:48.100Z,1016.9
2017-01-06T22:51:09.427Z,1016.9
2017-01-06T22:51:30.771Z,1016.9
2017-01-06T22:51:52.105Z,1016.9
2017-01-06T22:52:13.422Z,1016.9
2017-01-06T22:52:34.741Z,1016.9
2017-01-06T22:52:56.062Z,1016.9
2017-01-06T22:53:17.376Z,1016.9
2017-01-06T22:53:38.754Z,1016.9
2017-01-06T22:54:00.064Z,1016.9
2017-01-06T22:54:21.369Z,1016.9
2017-01-06T22:54:42.683Z,1016.9
2017-01-06T22:55:03.995Z,1016.9
2017-01-06T22:55:25.375Z,1016.9
2017-01-06T22:55:46.681Z,1016.9
2017-01-06T22:56:07.999Z,1016.9
2017-01-06T22:56:29.355Z,1016.9
2017-01-06T22:56:50.711Z,1016.9
2017-01-06T22:57:12.017Z,1016.9
2017-01-06T22:57:33.328Z,1016.9
2017-01-06T22:57:54.659Z,1016.9
2017-01-06T22:58:16.016Z,1016.9
2017-01-06T22:58:37.376Z,1016.9
2017-01-06T22:58:58.705Z,1016.9
2017-01-06T22:59:20.092Z,1016.9
2017-01-06T22:59:41.415Z,1016.8
2017-01-06T23:00:02.782Z,1016.9
2017-01-06T23:00:24.122Z,1016.8
2017-01-06T23:00:45.443Z,1016.8
2017-01-06T23:01:06.776Z,1016.9
2017-01-06T23:01:28.091Z,1016.8
2017-01-06T23:01:49.431Z,1016.8
2017-01-06T23:02:10.742Z,1016.8
2017-01-06T23:02:32.057Z,1016.8
2017-01-06T23:02:53.560Z,1016.8
2017-01-06T23:03:14.873Z,1016.8
2017-01-06T23:03:36.203Z,1016.8
2017-01-06T23:03:57.516Z,1016.8
2017-01-06T23:04:18.930Z,1016.8
2017-01-06T23:04:40.283Z,1016.8
2017-01-06T23:05:01.585Z,1016.8
2017-01-06T23:05:22.900Z,1016.8
2017-01-06T23:05:44.219Z,1016.8
2017-01-06T23:06:05.545Z,1016.7
2017-01-06T23:06:26.855Z,1016.7
2017-01-06T23:06:48.195Z,1016.8
2017-01-06T23:07:09.510Z,1016.7
2017-01-06T23:07:30.809Z,1016.7
2017-01-06T23:07:52.118Z,1016.7
2017-01-06T23:08:13.441Z,1016.7
2017-01-06T23:08:34.736Z,1016.7
2017-01-06T23:08:56.106Z,1016.7
2017-01-06T23:09:17.419Z,1016.7
2017-01-06T23:09:38.735Z,1016.7
2017-01-06T23:10:00.093Z,1016.7
2017-01-06T23:10:21.403Z,1016.7
2017-01-06T23:10:42.737Z,1016.7
2017-01-06T23:11:04.127Z,1016.7
2017-01-06T23:11:25.466Z,1016.7
2017-01-06T23:11:46.795Z,1016.7
2017-01-06T23:12:08.137Z,1016.7
2017-01-06T23:12:29.444Z,1016.7
2017-01-06T23:12:50.779Z,1016.7
2017-01-06T23:13:12.085Z,1016.7
2017-01-06T23:13:33.408Z,1016.7
2017-01-06T23:13:54.736Z,1016.7
2017-01-06T23:14:16.048Z,1016.7
2017-01-06T23:14:37.364Z,1016.7
2017-01-06T23:14:58.695Z,1016.7
2017-01-06T23:15:20.001Z,1016.7
2017-01-06T23:15:41.327Z,1016.7
2017-01-06T23:16:02.645Z,1016.6
2017-01-06T23:16:23.960Z,1016.6
2017-01-06T23:16:45.416Z,1016.6
2017-01-06T23:17:06.706Z,1016.6
2017-01-06T23:17:28.019Z,1016.6
2017-01-06T23:17:49.335Z,1016.6
2017-01-06T23:18:10.645Z,1016.6
2017-01-06T23:18:31.959Z,1016.6
2017-01-06T23:18:53.281Z,1016.6
2017-01-06T23:19:14.603Z,1016.6
2017-01-06T23:19:35.907Z,1016.6
2017-01-06T23:19:57.222Z,1016.6
2017-01-06T23:20:18.524Z,1016.6
2017-01-06T23:20:39.833Z,1016.6
2017-01-06T23:21:01.146Z,1016.6
2017-01-06T23:21:22.459Z,1016.6
2017-01-06T23:21:43.796Z,1016.6
2017-01-06T23:22:05.103Z,1016.6
2017-01-06T23:22:26.415Z,1016.6
2017-01-06T23:22:47.721Z,1016.6
2017-01-06T23:23:09.029Z,1016.6
2017-01-06T23:23:30.338Z,1016.6
2017-01-06T23:23:51.643Z,1016.6
2017-01-06T23:24:12.974Z,1016.6
2017-01-06T23:24:34.291Z,1016.6
2017-01-06T23:24:55.653Z,1016.6
2017-01-06T23:25:16.987Z,1016.6
2017-01-06T23:25:38.297Z,1016.6
2017-01-06T23:25:59.615Z,1016.6
2017-01-06T23:26:20.982Z,1016.6
2017-01-06T23:26:42.333Z,1016.6
2017-01-06T23:27:03.665Z,1016.6
2017-01-06T23:27:24.982Z,1016.6
2017-01-06T23:27:46.348Z,1016.6
2017-01-06T23:28:07.678Z,1016.5
2017-01-06T23:28:29.004Z,1016.5
2017-01-06T23:28:50.360Z,1016.5
2017-01-06T23:29:11.721Z,1016.5
2017-01-06T23:29:33.032Z,1016.5
2017-01-06T23:29:54.352Z,1016.5
2017-01-06T23:30:15.701Z,1016.5
2017-01-06T23:30:37.010Z,1016.4
2017-01-06T23:30:58.341Z,1016.5
2017-01-06T23:31:19.650Z,1016.5
2017-01-06T23:31:40.969Z,1016.5
2017-01-06T23:32:02.320Z,1016.4
2017-01-06T23:32:23.627Z,1016.5
2017-01-06T23:32:44.974Z,1016.5
2017-01-06T23:33:06.292Z,1016.4
2017-01-06T23:33:27.648Z,1016.4
2017-01-06T23:33:48.977Z,1016.4
2017-01-06T23:34:10.293Z,1016.4
2017-01-06T23:34:31.609Z,1016.4
2017-01-06T23:34:52.919Z,1016.3
2017-01-06T23:35:14.222Z,1016.3
2017-01-06T23:35:35.550Z,1016.3
2017-01-06T23:35:56.846Z,1016.3
2017-01-06T23:36:18.149Z,1016.3
2017-01-06T23:36:39.468Z,1016.3
2017-01-06T23:37:00.821Z,1016.3
2017-01-06T23:37:22.138Z,1016.3
2017-01-06T23:37:43.458Z,1016.3
2017-01-06T23:38:04.808Z,1016.3
2017-01-06T23:38:26.111Z,1016.2
2017-01-06T23:38:47.493Z,1016.3
2017-01-06T23:39:08.818Z,1016.3
2017-01-06T23:39:30.164Z,1016.3
2017-01-06T23:39:51.503Z,1016.3
2017-01-06T23:40:12.818Z,1016.3
2017-01-06T23:40:34.175Z,1016.3
2017-01-06T23:40:55.527Z,1016.3
2017-01-06T23:41:16.830Z,1016.3
2017-01-06T23:41:38.156Z,1016.3
2017-01-06T23:41:59.502Z,1016.3
2017-01-06T23:42:20.804Z,1016.3
2017-01-06T23:42:42.115Z,1016.3
2017-01-06T23:43:03.459Z,1016.3
2017-01-06T23:43:24.773Z,1016.3
2017-01-06T23:43:46.073Z,1016.3
2017-01-06T23:44:07.381Z,1016.3
2017-01-06T23:44:28.715Z,1016.3
2017-01-06T23:44:50.036Z,1016.4
2017-01-06T23:45:11.370Z,1016.3
2017-01-06T23:45:32.678Z,1016.3
2017-01-06T23:45:54.024Z,1016.3
2017-01-06T23:46:15.322Z,1016.3
2017-01-06T23:46:36.632Z,1016.3
2017-01-06T23:46:57.991Z,1016.3
2017-01-06T23:47:19.305Z,1016.3
2017-01-06T23:47:40.622Z,1016.3
2017-01-06T23:48:01.939Z,1016.3
2017-01-06T23:48:23.235Z,1016.3
2017-01-06T23:48:44.538Z,1016.3
2017-01-06T23:49:05.838Z,1016.3
2017-01-06T23:49:27.139Z,1016.3
2017-01-06T23:49:48.447Z,1016.3
2017-01-06T23:50:09.763Z,1016.3
2017-01-06T23:50:31.068Z,1016.2
2017-01-06T23:50:52.398Z,1016.2
2017-01-06T23:51:13.779Z,1016.3
2017-01-06T23:51:35.134Z,1016.2
2017-01-06T23:51:56.504Z,1016.2
2017-01-06T23:52:17.867Z,1016.2
2017-01-06T23:52:39.188Z,1016.2
2017-01-06T23:53:00.541Z,1016.2
2017-01-06T23:53:21.865Z,1016.2
2017-01-06T23:53:43.165Z,1016.2
2017-01-06T23:54:04.488Z,1016.2
2017-01-06T23:54:25.820Z,1016.2
2017-01-06T23:54:47.154Z,1016.2
2017-01-06T23:55:08.509Z,1016.2
2017-01-06T23:55:29.826Z,1016.2
2017-01-06T23:55:51.130Z,1016.2
2017-01-06T23:56:12.492Z,1016.2
2017-01-06T23:56:33.854Z,1016.2
2017-01-06T23:56:55.172Z,1016.2
2017-01-06T23:57:16.491Z,1016.2
2017-01-06T23:57:37.818Z,1016.2
2017-01-06T23:57:59.152Z,1016.2
2017-01-06T23:58:20.464Z,1016.2
2017-01-06T23:58:41.764Z,1016.2
2017-01-06T23:59:03.090Z,1016.2
2017-01-06T23:59:24.422Z,1016.2
2017-01-06T23:59:45.736Z,1016.2
